sensor_id;sensor_type;location;lat;lon;timestamp;temperature;humidity
62583;DHT22;48641;51.676;5.808;2023-06-05T00:01:28;22.90;56.40
62583;DHT22;48641;51.676;5.808;2023-06-05T00:03:54;22.90;56.50
62583;DHT22;48641;51.676;5.808;2023-06-05T00:06:20;22.90;56.40
62583;DHT22;48641;51.676;5.808;2023-06-05T00:08:45;22.90;56.40
62583;DHT22;48641;51.676;5.808;2023-06-05T00:11:11;22.90;56.40
62583;DHT22;48641;51.676;5.808;2023-06-05T00:13:37;22.90;56.40
62583;DHT22;48641;51.676;5.808;2023-06-05T00:16:03;22.90;56.40
62583;DHT22;48641;51.676;5.808;2023-06-05T00:18:30;22.90;56.40
62583;DHT22;48641;51.676;5.808;2023-06-05T00:20:56;22.90;56.40
62583;DHT22;48641;51.676;5.808;2023-06-05T00:23:21;22.90;56.50
62583;DHT22;48641;51.676;5.808;2023-06-05T00:25:47;22.90;56.40
62583;DHT22;48641;51.676;5.808;2023-06-05T00:28:12;22.90;56.40
62583;DHT22;48641;51.676;5.808;2023-06-05T00:30:38;22.90;56.40
62583;DHT22;48641;51.676;5.808;2023-06-05T00:33:04;22.90;56.40
62583;DHT22;48641;51.676;5.808;2023-06-05T00:35:30;22.90;56.40
62583;DHT22;48641;51.676;5.808;2023-06-05T00:37:55;22.90;56.40
62583;DHT22;48641;51.676;5.808;2023-06-05T00:40:21;22.90;56.40
62583;DHT22;48641;51.676;5.808;2023-06-05T00:42:47;22.80;56.30
62583;DHT22;48641;51.676;5.808;2023-06-05T00:45:13;22.90;56.40
62583;DHT22;48641;51.676;5.808;2023-06-05T00:47:39;22.80;56.30
62583;DHT22;48641;51.676;5.808;2023-06-05T00:50:07;22.80;56.30
62583;DHT22;48641;51.676;5.808;2023-06-05T00:52:33;22.80;56.30
62583;DHT22;48641;51.676;5.808;2023-06-05T00:54:59;22.80;56.30
62583;DHT22;48641;51.676;5.808;2023-06-05T00:57:26;22.80;56.30
62583;DHT22;48641;51.676;5.808;2023-06-05T00:59:54;22.80;56.30
62583;DHT22;48641;51.676;5.808;2023-06-05T01:02:19;22.80;56.30
62583;DHT22;48641;51.676;5.808;2023-06-05T01:04:46;22.80;56.30
62583;DHT22;48641;51.676;5.808;2023-06-05T01:07:15;22.80;56.20
62583;DHT22;48641;51.676;5.808;2023-06-05T01:09:42;22.80;56.20
62583;DHT22;48641;51.676;5.808;2023-06-05T01:14:48;22.80;56.10
62583;DHT22;48641;51.676;5.808;2023-06-05T01:17:16;22.80;56.30
62583;DHT22;48641;51.676;5.808;2023-06-05T01:19:45;22.70;56.20
62583;DHT22;48641;51.676;5.808;2023-06-05T01:22:11;22.70;56.20
62583;DHT22;48641;51.676;5.808;2023-06-05T01:24:41;22.80;56.20
62583;DHT22;48641;51.676;5.808;2023-06-05T01:27:24;22.70;56.20
62583;DHT22;48641;51.676;5.808;2023-06-05T01:32:40;22.70;56.20
62583;DHT22;48641;51.676;5.808;2023-06-05T01:35:10;22.70;56.20
62583;DHT22;48641;51.676;5.808;2023-06-05T01:37:39;22.70;56.20
62583;DHT22;48641;51.676;5.808;2023-06-05T01:40:11;22.70;56.20
62583;DHT22;48641;51.676;5.808;2023-06-05T01:42:40;22.70;56.20
62583;DHT22;48641;51.676;5.808;2023-06-05T01:45:07;22.70;56.20
62583;DHT22;48641;51.676;5.808;2023-06-05T01:47:35;22.70;56.20
62583;DHT22;48641;51.676;5.808;2023-06-05T01:50:01;22.70;56.20
62583;DHT22;48641;51.676;5.808;2023-06-05T01:52:26;22.70;56.20
62583;DHT22;48641;51.676;5.808;2023-06-05T01:54:52;22.70;56.20
62583;DHT22;48641;51.676;5.808;2023-06-05T01:57:18;22.70;56.20
62583;DHT22;48641;51.676;5.808;2023-06-05T01:59:44;22.60;56.20
62583;DHT22;48641;51.676;5.808;2023-06-05T02:02:11;22.60;56.10
62583;DHT22;48641;51.676;5.808;2023-06-05T02:04:37;22.60;56.10
62583;DHT22;48641;51.676;5.808;2023-06-05T02:07:03;22.70;56.10
62583;DHT22;48641;51.676;5.808;2023-06-05T02:09:31;22.60;56.10
62583;DHT22;48641;51.676;5.808;2023-06-05T02:12:00;22.60;56.10
62583;DHT22;48641;51.676;5.808;2023-06-05T02:14:30;22.60;56.10
62583;DHT22;48641;51.676;5.808;2023-06-05T02:16:57;22.70;56.10
62583;DHT22;48641;51.676;5.808;2023-06-05T02:19:23;22.60;56.10
62583;DHT22;48641;51.676;5.808;2023-06-05T02:21:49;22.60;56.10
62583;DHT22;48641;51.676;5.808;2023-06-05T02:24:17;22.60;56.10
62583;DHT22;48641;51.676;5.808;2023-06-05T02:26:44;22.60;56.10
62583;DHT22;48641;51.676;5.808;2023-06-05T02:29:10;22.60;56.10
62583;DHT22;48641;51.676;5.808;2023-06-05T02:31:35;22.60;56.10
62583;DHT22;48641;51.676;5.808;2023-06-05T02:34:02;22.60;56.10
62583;DHT22;48641;51.676;5.808;2023-06-05T02:36:27;22.60;56.10
62583;DHT22;48641;51.676;5.808;2023-06-05T02:39:04;22.60;56.00
62583;DHT22;48641;51.676;5.808;2023-06-05T02:41:32;22.60;56.10
62583;DHT22;48641;51.676;5.808;2023-06-05T02:43:58;22.60;56.00
62583;DHT22;48641;51.676;5.808;2023-06-05T02:46:25;22.60;56.10
62583;DHT22;48641;51.676;5.808;2023-06-05T02:48:51;22.60;56.00
62583;DHT22;48641;51.676;5.808;2023-06-05T02:51:17;22.60;56.00
62583;DHT22;48641;51.676;5.808;2023-06-05T02:53:42;22.60;56.00
62583;DHT22;48641;51.676;5.808;2023-06-05T02:56:08;22.50;56.00
62583;DHT22;48641;51.676;5.808;2023-06-05T02:58:33;22.60;56.10
62583;DHT22;48641;51.676;5.808;2023-06-05T03:01:00;22.50;56.00
62583;DHT22;48641;51.676;5.808;2023-06-05T03:03:31;22.50;56.00
62583;DHT22;48641;51.676;5.808;2023-06-05T03:06:01;22.50;56.00
62583;DHT22;48641;51.676;5.808;2023-06-05T03:08:31;22.50;56.00
62583;DHT22;48641;51.676;5.808;2023-06-05T03:10:57;22.50;56.00
62583;DHT22;48641;51.676;5.808;2023-06-05T03:13:23;22.50;56.00
62583;DHT22;48641;51.676;5.808;2023-06-05T03:15:49;22.50;55.90
62583;DHT22;48641;51.676;5.808;2023-06-05T03:18:19;22.50;55.90
62583;DHT22;48641;51.676;5.808;2023-06-05T03:20:45;22.50;56.00
62583;DHT22;48641;51.676;5.808;2023-06-05T03:23:10;22.50;56.90
62583;DHT22;48641;51.676;5.808;2023-06-05T03:25:36;22.50;56.00
62583;DHT22;48641;51.676;5.808;2023-06-05T03:28:02;22.50;56.00
62583;DHT22;48641;51.676;5.808;2023-06-05T03:30:27;22.50;55.90
62583;DHT22;48641;51.676;5.808;2023-06-05T03:32:53;22.50;56.00
62583;DHT22;48641;51.676;5.808;2023-06-05T03:35:18;22.50;56.00
62583;DHT22;48641;51.676;5.808;2023-06-05T03:37:44;22.40;55.90
62583;DHT22;48641;51.676;5.808;2023-06-05T03:40:11;22.40;56.00
62583;DHT22;48641;51.676;5.808;2023-06-05T03:42:37;22.40;55.90
62583;DHT22;48641;51.676;5.808;2023-06-05T03:45:03;22.40;55.90
62583;DHT22;48641;51.676;5.808;2023-06-05T03:47:28;22.40;55.90
62583;DHT22;48641;51.676;5.808;2023-06-05T03:49:54;22.50;55.90
62583;DHT22;48641;51.676;5.808;2023-06-05T03:52:21;22.40;55.90
62583;DHT22;48641;51.676;5.808;2023-06-05T03:54:50;22.50;56.00
62583;DHT22;48641;51.676;5.808;2023-06-05T03:57:21;22.40;55.90
62583;DHT22;48641;51.676;5.808;2023-06-05T03:59:47;22.40;56.00
62583;DHT22;48641;51.676;5.808;2023-06-05T04:02:13;22.40;56.00
62583;DHT22;48641;51.676;5.808;2023-06-05T04:04:39;22.40;56.00
62583;DHT22;48641;51.676;5.808;2023-06-05T04:07:05;22.40;56.90
62583;DHT22;48641;51.676;5.808;2023-06-05T04:09:31;22.40;56.00
62583;DHT22;48641;51.676;5.808;2023-06-05T04:11:57;22.40;55.90
62583;DHT22;48641;51.676;5.808;2023-06-05T04:14:24;22.30;55.80
62583;DHT22;48641;51.676;5.808;2023-06-05T04:16:49;22.30;55.80
62583;DHT22;48641;51.676;5.808;2023-06-05T04:19:15;22.30;55.80
62583;DHT22;48641;51.676;5.808;2023-06-05T04:21:41;22.40;55.90
62583;DHT22;48641;51.676;5.808;2023-06-05T04:24:08;22.30;55.90
62583;DHT22;48641;51.676;5.808;2023-06-05T04:26:35;22.30;55.80
62583;DHT22;48641;51.676;5.808;2023-06-05T04:29:02;22.40;55.90
62583;DHT22;48641;51.676;5.808;2023-06-05T04:31:31;22.30;55.90
62583;DHT22;48641;51.676;5.808;2023-06-05T04:33:58;22.30;55.90
62583;DHT22;48641;51.676;5.808;2023-06-05T04:36:26;22.30;55.90
62583;DHT22;48641;51.676;5.808;2023-06-05T04:38:52;22.30;55.90
62583;DHT22;48641;51.676;5.808;2023-06-05T04:41:17;22.30;55.90
62583;DHT22;48641;51.676;5.808;2023-06-05T04:43:43;22.30;55.90
62583;DHT22;48641;51.676;5.808;2023-06-05T04:46:09;22.30;56.00
62583;DHT22;48641;51.676;5.808;2023-06-05T04:48:34;22.30;56.00
62583;DHT22;48641;51.676;5.808;2023-06-05T04:51:00;22.30;55.90
62583;DHT22;48641;51.676;5.808;2023-06-05T04:53:26;22.30;55.90
62583;DHT22;48641;51.676;5.808;2023-06-05T04:55:54;22.30;56.00
62583;DHT22;48641;51.676;5.808;2023-06-05T04:58:20;22.30;55.90
62583;DHT22;48641;51.676;5.808;2023-06-05T05:00:47;22.30;55.90
62583;DHT22;48641;51.676;5.808;2023-06-05T05:03:14;22.30;56.00
62583;DHT22;48641;51.676;5.808;2023-06-05T05:05:41;22.30;55.90
62583;DHT22;48641;51.676;5.808;2023-06-05T05:08:07;22.20;55.90
62583;DHT22;48641;51.676;5.808;2023-06-05T05:10:32;22.30;56.90
62583;DHT22;48641;51.676;5.808;2023-06-05T05:12:58;22.20;56.80
62583;DHT22;48641;51.676;5.808;2023-06-05T05:15:29;22.20;55.90
62583;DHT22;48641;51.676;5.808;2023-06-05T05:17:55;22.20;55.90
62583;DHT22;48641;51.676;5.808;2023-06-05T05:20:22;22.20;55.90
62583;DHT22;48641;51.676;5.808;2023-06-05T05:22:48;22.20;55.90
62583;DHT22;48641;51.676;5.808;2023-06-05T05:25:13;22.20;55.90
62583;DHT22;48641;51.676;5.808;2023-06-05T05:27:39;22.20;55.90
62583;DHT22;48641;51.676;5.808;2023-06-05T05:30:06;22.20;55.90
62583;DHT22;48641;51.676;5.808;2023-06-05T05:32:32;22.20;55.80
62583;DHT22;48641;51.676;5.808;2023-06-05T05:34:58;22.20;55.80
62583;DHT22;48641;51.676;5.808;2023-06-05T05:37:24;22.20;55.70
62583;DHT22;48641;51.676;5.808;2023-06-05T05:39:51;22.20;55.90
62583;DHT22;48641;51.676;5.808;2023-06-05T05:42:17;22.20;55.80
62583;DHT22;48641;51.676;5.808;2023-06-05T05:44:43;22.20;55.80
62583;DHT22;48641;51.676;5.808;2023-06-05T05:47:10;22.20;55.80
62583;DHT22;48641;51.676;5.808;2023-06-05T05:49:36;22.20;55.70
62583;DHT22;48641;51.676;5.808;2023-06-05T05:52:02;22.20;55.80
62583;DHT22;48641;51.676;5.808;2023-06-05T05:54:27;22.20;55.80
62583;DHT22;48641;51.676;5.808;2023-06-05T05:56:56;22.10;55.70
62583;DHT22;48641;51.676;5.808;2023-06-05T05:59:21;22.10;55.70
62583;DHT22;48641;51.676;5.808;2023-06-05T06:01:47;22.10;55.80
62583;DHT22;48641;51.676;5.808;2023-06-05T06:04:16;22.10;55.80
62583;DHT22;48641;51.676;5.808;2023-06-05T06:06:42;22.10;55.80
62583;DHT22;48641;51.676;5.808;2023-06-05T06:09:07;22.10;55.80
62583;DHT22;48641;51.676;5.808;2023-06-05T06:11:38;22.10;55.80
62583;DHT22;48641;51.676;5.808;2023-06-05T06:14:04;22.10;56.80
62583;DHT22;48641;51.676;5.808;2023-06-05T06:16:29;22.10;55.80
62583;DHT22;48641;51.676;5.808;2023-06-05T06:18:55;22.10;55.90
62583;DHT22;48641;51.676;5.808;2023-06-05T06:21:21;22.10;55.90
62583;DHT22;48641;51.676;5.808;2023-06-05T06:23:46;22.00;55.80
62583;DHT22;48641;51.676;5.808;2023-06-05T06:26:12;22.10;55.90
62583;DHT22;48641;51.676;5.808;2023-06-05T06:28:41;22.10;55.90
62583;DHT22;48641;51.676;5.808;2023-06-05T06:31:07;22.00;55.90
62583;DHT22;48641;51.676;5.808;2023-06-05T06:33:32;22.00;56.10
62583;DHT22;48641;51.676;5.808;2023-06-05T06:35:58;22.00;56.10
62583;DHT22;48641;51.676;5.808;2023-06-05T06:38:25;22.00;56.10
62583;DHT22;48641;51.676;5.808;2023-06-05T06:40:56;22.00;56.10
62583;DHT22;48641;51.676;5.808;2023-06-05T06:43:23;22.00;57.00
62583;DHT22;48641;51.676;5.808;2023-06-05T06:45:48;22.00;56.00
62583;DHT22;48641;51.676;5.808;2023-06-05T06:48:15;22.00;56.00
62583;DHT22;48641;51.676;5.808;2023-06-05T06:50:42;22.00;56.00
62583;DHT22;48641;51.676;5.808;2023-06-05T06:53:08;22.00;56.00
62583;DHT22;48641;51.676;5.808;2023-06-05T06:55:34;22.00;56.10
62583;DHT22;48641;51.676;5.808;2023-06-05T06:57:59;22.00;56.00
62583;DHT22;48641;51.676;5.808;2023-06-05T07:00:25;22.00;56.00
62583;DHT22;48641;51.676;5.808;2023-06-05T07:02:51;22.00;56.00
62583;DHT22;48641;51.676;5.808;2023-06-05T07:05:17;22.00;56.10
62583;DHT22;48641;51.676;5.808;2023-06-05T07:07:45;22.00;56.10
62583;DHT22;48641;51.676;5.808;2023-06-05T07:10:13;22.00;56.10
62583;DHT22;48641;51.676;5.808;2023-06-05T07:12:39;22.00;56.10
62583;DHT22;48641;51.676;5.808;2023-06-05T07:15:05;22.00;56.10
62583;DHT22;48641;51.676;5.808;2023-06-05T07:17:31;22.00;56.20
62583;DHT22;48641;51.676;5.808;2023-06-05T07:19:57;22.00;56.20
62583;DHT22;48641;51.676;5.808;2023-06-05T07:22:23;22.00;56.20
62583;DHT22;48641;51.676;5.808;2023-06-05T07:24:52;22.00;56.20
62583;DHT22;48641;51.676;5.808;2023-06-05T07:27:19;22.00;56.20
62583;DHT22;48641;51.676;5.808;2023-06-05T07:29:46;22.00;56.20
62583;DHT22;48641;51.676;5.808;2023-06-05T07:32:12;21.90;56.10
62583;DHT22;48641;51.676;5.808;2023-06-05T07:34:38;22.00;56.20
62583;DHT22;48641;51.676;5.808;2023-06-05T07:37:04;21.90;56.20
62583;DHT22;48641;51.676;5.808;2023-06-05T07:39:34;22.00;56.30
62583;DHT22;48641;51.676;5.808;2023-06-05T07:41:59;21.90;56.30
62583;DHT22;48641;51.676;5.808;2023-06-05T07:44:25;22.00;56.30
62583;DHT22;48641;51.676;5.808;2023-06-05T07:46:51;21.90;56.20
62583;DHT22;48641;51.676;5.808;2023-06-05T07:49:17;21.90;56.20
62583;DHT22;48641;51.676;5.808;2023-06-05T07:51:44;22.00;56.30
62583;DHT22;48641;51.676;5.808;2023-06-05T07:54:13;21.90;56.30
62583;DHT22;48641;51.676;5.808;2023-06-05T07:56:39;21.90;56.30
62583;DHT22;48641;51.676;5.808;2023-06-05T07:59:06;21.90;56.50
62583;DHT22;48641;51.676;5.808;2023-06-05T08:01:33;21.90;56.20
62583;DHT22;48641;51.676;5.808;2023-06-05T08:04:08;21.90;56.30
62583;DHT22;48641;51.676;5.808;2023-06-05T08:06:36;21.90;56.30
62583;DHT22;48641;51.676;5.808;2023-06-05T08:09:04;21.90;56.30
62583;DHT22;48641;51.676;5.808;2023-06-05T08:11:30;21.90;56.30
62583;DHT22;48641;51.676;5.808;2023-06-05T08:13:55;21.90;56.30
62583;DHT22;48641;51.676;5.808;2023-06-05T08:16:21;21.90;57.40
62583;DHT22;48641;51.676;5.808;2023-06-05T08:18:47;21.90;56.30
62583;DHT22;48641;51.676;5.808;2023-06-05T08:21:13;21.90;56.20
62583;DHT22;48641;51.676;5.808;2023-06-05T08:23:38;21.90;56.20
62583;DHT22;48641;51.676;5.808;2023-06-05T08:26:04;21.90;56.30
62583;DHT22;48641;51.676;5.808;2023-06-05T08:28:37;21.90;56.30
62583;DHT22;48641;51.676;5.808;2023-06-05T08:31:03;21.90;56.30
62583;DHT22;48641;51.676;5.808;2023-06-05T08:33:34;21.90;56.30
62583;DHT22;48641;51.676;5.808;2023-06-05T08:36:00;21.90;56.40
62583;DHT22;48641;51.676;5.808;2023-06-05T08:38:27;21.90;57.40
62583;DHT22;48641;51.676;5.808;2023-06-05T08:41:02;21.90;56.40
62583;DHT22;48641;51.676;5.808;2023-06-05T08:43:31;21.90;56.40
62583;DHT22;48641;51.676;5.808;2023-06-05T08:45:57;21.90;56.40
62583;DHT22;48641;51.676;5.808;2023-06-05T08:48:24;21.90;56.40
62583;DHT22;48641;51.676;5.808;2023-06-05T08:50:51;21.90;56.40
62583;DHT22;48641;51.676;5.808;2023-06-05T08:53:18;21.90;56.40
62583;DHT22;48641;51.676;5.808;2023-06-05T08:55:47;21.90;56.50
62583;DHT22;48641;51.676;5.808;2023-06-05T08:58:16;21.90;56.40
62583;DHT22;48641;51.676;5.808;2023-06-05T09:00:42;21.90;56.40
62583;DHT22;48641;51.676;5.808;2023-06-05T09:03:11;21.90;56.40
62583;DHT22;48641;51.676;5.808;2023-06-05T09:05:40;21.90;56.40
62583;DHT22;48641;51.676;5.808;2023-06-05T09:08:06;21.90;56.40
62583;DHT22;48641;51.676;5.808;2023-06-05T09:10:32;21.90;56.50
62583;DHT22;48641;51.676;5.808;2023-06-05T09:12:59;21.90;56.50
62583;DHT22;48641;51.676;5.808;2023-06-05T09:15:30;21.90;56.50
62583;DHT22;48641;51.676;5.808;2023-06-05T09:18:09;21.90;56.50
62583;DHT22;48641;51.676;5.808;2023-06-05T09:20:40;21.90;56.50
62583;DHT22;48641;51.676;5.808;2023-06-05T09:23:25;21.90;56.60
62583;DHT22;48641;51.676;5.808;2023-06-05T09:25:59;21.90;56.50
62583;DHT22;48641;51.676;5.808;2023-06-05T09:28:25;21.80;56.60
62583;DHT22;48641;51.676;5.808;2023-06-05T09:31:02;21.90;56.70
62583;DHT22;48641;51.676;5.808;2023-06-05T09:33:30;21.90;56.50
62583;DHT22;48641;51.676;5.808;2023-06-05T09:36:11;21.90;56.60
62583;DHT22;48641;51.676;5.808;2023-06-05T09:38:41;21.90;56.50
62583;DHT22;48641;51.676;5.808;2023-06-05T09:41:11;21.90;56.60
62583;DHT22;48641;51.676;5.808;2023-06-05T09:43:37;21.80;56.60
62583;DHT22;48641;51.676;5.808;2023-06-05T09:46:13;21.80;56.60
62583;DHT22;48641;51.676;5.808;2023-06-05T09:48:41;21.90;56.70
62583;DHT22;48641;51.676;5.808;2023-06-05T09:51:17;21.80;56.60
62583;DHT22;48641;51.676;5.808;2023-06-05T09:53:45;21.80;56.60
62583;DHT22;48641;51.676;5.808;2023-06-05T09:56:16;21.80;57.70
62583;DHT22;48641;51.676;5.808;2023-06-05T09:58:50;21.90;56.70
62583;DHT22;48641;51.676;5.808;2023-06-05T10:01:25;21.90;56.70
62583;DHT22;48641;51.676;5.808;2023-06-05T10:03:58;21.90;56.80
62583;DHT22;48641;51.676;5.808;2023-06-05T10:06:26;21.90;56.70
62583;DHT22;48641;51.676;5.808;2023-06-05T10:08:53;21.90;56.70
62583;DHT22;48641;51.676;5.808;2023-06-05T10:11:21;21.90;56.70
62583;DHT22;48641;51.676;5.808;2023-06-05T10:13:47;21.80;57.00
62583;DHT22;48641;51.676;5.808;2023-06-05T10:16:15;21.80;56.90
62583;DHT22;48641;51.676;5.808;2023-06-05T10:18:41;21.80;56.90
62583;DHT22;48641;51.676;5.808;2023-06-05T10:21:07;21.80;56.90
62583;DHT22;48641;51.676;5.808;2023-06-05T10:23:33;21.80;56.80
62583;DHT22;48641;51.676;5.808;2023-06-05T10:26:05;21.80;56.90
62583;DHT22;48641;51.676;5.808;2023-06-05T10:31:29;21.90;56.90
62583;DHT22;48641;51.676;5.808;2023-06-05T10:34:32;21.90;56.90
62583;DHT22;48641;51.676;5.808;2023-06-05T10:39:54;21.90;56.90
62583;DHT22;48641;51.676;5.808;2023-06-05T10:42:26;21.90;57.00
62583;DHT22;48641;51.676;5.808;2023-06-05T10:44:53;21.90;57.00
62583;DHT22;48641;51.676;5.808;2023-06-05T10:52:49;21.90;56.90
62583;DHT22;48641;51.676;5.808;2023-06-05T10:55:15;21.90;57.00
62583;DHT22;48641;51.676;5.808;2023-06-05T10:58:12;21.90;57.10
62583;DHT22;48641;51.676;5.808;2023-06-05T11:01:19;21.90;57.10
62583;DHT22;48641;51.676;5.808;2023-06-05T11:03:54;22.00;57.10
62583;DHT22;48641;51.676;5.808;2023-06-05T11:06:21;22.00;57.30
62583;DHT22;48641;51.676;5.808;2023-06-05T11:09:11;22.00;57.30
62583;DHT22;48641;51.676;5.808;2023-06-05T11:12:02;22.00;57.10
62583;DHT22;48641;51.676;5.808;2023-06-05T11:17:27;22.00;57.20
62583;DHT22;48641;51.676;5.808;2023-06-05T11:19:53;22.00;57.20
62583;DHT22;48641;51.676;5.808;2023-06-05T11:22:19;22.00;57.30
62583;DHT22;48641;51.676;5.808;2023-06-05T11:24:45;22.00;57.30
62583;DHT22;48641;51.676;5.808;2023-06-05T11:28:03;22.00;57.30
62583;DHT22;48641;51.676;5.808;2023-06-05T11:30:29;22.10;57.20
62583;DHT22;48641;51.676;5.808;2023-06-05T11:33:10;22.00;57.30
62583;DHT22;48641;51.676;5.808;2023-06-05T11:35:39;22.00;57.30
62583;DHT22;48641;51.676;5.808;2023-06-05T11:40:34;22.10;57.40
62583;DHT22;48641;51.676;5.808;2023-06-05T11:43:04;22.10;58.30
62583;DHT22;48641;51.676;5.808;2023-06-05T11:45:34;22.10;57.30
62583;DHT22;48641;51.676;5.808;2023-06-05T11:48:08;22.10;57.30
62583;DHT22;48641;51.676;5.808;2023-06-05T11:50:35;22.20;57.40
62583;DHT22;48641;51.676;5.808;2023-06-05T11:53:10;22.20;57.30
62583;DHT22;48641;51.676;5.808;2023-06-05T11:55:39;22.20;57.30
62583;DHT22;48641;51.676;5.808;2023-06-05T11:58:26;22.20;57.30
62583;DHT22;48641;51.676;5.808;2023-06-05T12:01:19;22.20;57.20
62583;DHT22;48641;51.676;5.808;2023-06-05T12:04:07;22.20;57.20
62583;DHT22;48641;51.676;5.808;2023-06-05T12:06:44;22.20;57.20
62583;DHT22;48641;51.676;5.808;2023-06-05T12:09:12;22.20;57.40
62583;DHT22;48641;51.676;5.808;2023-06-05T12:11:40;22.20;57.40
62583;DHT22;48641;51.676;5.808;2023-06-05T12:14:06;22.30;57.50
62583;DHT22;48641;51.676;5.808;2023-06-05T12:16:35;22.30;57.40
62583;DHT22;48641;51.676;5.808;2023-06-05T12:19:10;22.30;57.30
62583;DHT22;48641;51.676;5.808;2023-06-05T12:21:36;22.30;57.30
62583;DHT22;48641;51.676;5.808;2023-06-05T12:24:03;22.30;57.30
62583;DHT22;48641;51.676;5.808;2023-06-05T12:26:29;22.40;57.30
62583;DHT22;48641;51.676;5.808;2023-06-05T12:29:05;22.30;57.30
62583;DHT22;48641;51.676;5.808;2023-06-05T12:31:35;22.40;57.20
62583;DHT22;48641;51.676;5.808;2023-06-05T12:34:02;22.40;57.30
62583;DHT22;48641;51.676;5.808;2023-06-05T12:36:29;22.40;57.20
62583;DHT22;48641;51.676;5.808;2023-06-05T12:39:01;22.40;57.30
62583;DHT22;48641;51.676;5.808;2023-06-05T12:41:29;22.40;57.30
62583;DHT22;48641;51.676;5.808;2023-06-05T12:44:01;22.40;57.40
62583;DHT22;48641;51.676;5.808;2023-06-05T12:46:27;22.50;57.40
62583;DHT22;48641;51.676;5.808;2023-06-05T12:48:53;22.50;57.40
62583;DHT22;48641;51.676;5.808;2023-06-05T12:51:19;22.50;57.40
62583;DHT22;48641;51.676;5.808;2023-06-05T12:53:46;22.50;57.30
62583;DHT22;48641;51.676;5.808;2023-06-05T12:56:11;22.50;57.30
62583;DHT22;48641;51.676;5.808;2023-06-05T12:58:37;22.50;57.30
62583;DHT22;48641;51.676;5.808;2023-06-05T13:01:02;22.50;57.20
62583;DHT22;48641;51.676;5.808;2023-06-05T13:03:29;22.50;57.20
62583;DHT22;48641;51.676;5.808;2023-06-05T13:05:54;22.50;57.20
62583;DHT22;48641;51.676;5.808;2023-06-05T13:08:20;22.50;57.20
62583;DHT22;48641;51.676;5.808;2023-06-05T13:10:45;22.50;57.20
62583;DHT22;48641;51.676;5.808;2023-06-05T13:13:11;22.60;57.40
62583;DHT22;48641;51.676;5.808;2023-06-05T13:15:37;22.60;57.40
62583;DHT22;48641;51.676;5.808;2023-06-05T13:18:02;22.60;57.30
62583;DHT22;48641;51.676;5.808;2023-06-05T13:20:28;22.60;57.30
62583;DHT22;48641;51.676;5.808;2023-06-05T13:22:53;22.70;57.40
62583;DHT22;48641;51.676;5.808;2023-06-05T13:25:19;22.70;57.40
62583;DHT22;48641;51.676;5.808;2023-06-05T13:27:45;22.70;57.40
62583;DHT22;48641;51.676;5.808;2023-06-05T13:30:10;22.70;57.30
62583;DHT22;48641;51.676;5.808;2023-06-05T13:32:36;22.70;57.20
62583;DHT22;48641;51.676;5.808;2023-06-05T13:35:07;22.70;57.30
62583;DHT22;48641;51.676;5.808;2023-06-05T13:37:33;22.70;57.30
62583;DHT22;48641;51.676;5.808;2023-06-05T13:39:58;22.70;57.20
62583;DHT22;48641;51.676;5.808;2023-06-05T13:42:24;22.70;57.20
62583;DHT22;48641;51.676;5.808;2023-06-05T13:44:50;22.70;57.20
62583;DHT22;48641;51.676;5.808;2023-06-05T13:47:15;22.70;57.30
62583;DHT22;48641;51.676;5.808;2023-06-05T13:49:41;22.70;57.30
62583;DHT22;48641;51.676;5.808;2023-06-05T13:52:07;22.70;57.30
62583;DHT22;48641;51.676;5.808;2023-06-05T13:54:32;22.80;57.40
62583;DHT22;48641;51.676;5.808;2023-06-05T13:56:58;22.80;57.40
62583;DHT22;48641;51.676;5.808;2023-06-05T13:59:25;22.80;57.30
62583;DHT22;48641;51.676;5.808;2023-06-05T14:01:53;22.80;57.30
62583;DHT22;48641;51.676;5.808;2023-06-05T14:04:18;22.80;57.30
62583;DHT22;48641;51.676;5.808;2023-06-05T14:06:44;22.80;57.30
62583;DHT22;48641;51.676;5.808;2023-06-05T14:09:10;22.80;57.30
62583;DHT22;48641;51.676;5.808;2023-06-05T14:11:35;22.80;57.30
62583;DHT22;48641;51.676;5.808;2023-06-05T14:14:02;22.80;57.30
62583;DHT22;48641;51.676;5.808;2023-06-05T14:16:27;22.80;57.30
62583;DHT22;48641;51.676;5.808;2023-06-05T14:18:53;22.90;57.40
62583;DHT22;48641;51.676;5.808;2023-06-05T14:21:18;22.90;57.50
62583;DHT22;48641;51.676;5.808;2023-06-05T14:23:44;22.90;57.40
62583;DHT22;48641;51.676;5.808;2023-06-05T14:26:10;22.90;57.30
62583;DHT22;48641;51.676;5.808;2023-06-05T14:28:36;22.90;57.40
62583;DHT22;48641;51.676;5.808;2023-06-05T14:31:02;22.90;57.30
62583;DHT22;48641;51.676;5.808;2023-06-05T14:33:27;22.90;57.30
62583;DHT22;48641;51.676;5.808;2023-06-05T14:35:53;22.90;57.30
62583;DHT22;48641;51.676;5.808;2023-06-05T14:38:18;22.90;57.30
62583;DHT22;48641;51.676;5.808;2023-06-05T14:40:44;22.90;57.50
62583;DHT22;48641;51.676;5.808;2023-06-05T14:43:10;22.90;57.30
62583;DHT22;48641;51.676;5.808;2023-06-05T14:45:35;22.90;57.40
62583;DHT22;48641;51.676;5.808;2023-06-05T14:48:01;22.90;57.40
62583;DHT22;48641;51.676;5.808;2023-06-05T14:50:26;22.90;57.40
62583;DHT22;48641;51.676;5.808;2023-06-05T14:52:52;22.90;57.40
62583;DHT22;48641;51.676;5.808;2023-06-05T14:55:18;22.90;57.40
62583;DHT22;48641;51.676;5.808;2023-06-05T14:57:43;23.00;57.50
62583;DHT22;48641;51.676;5.808;2023-06-05T15:00:09;23.00;57.40
62583;DHT22;48641;51.676;5.808;2023-06-05T15:02:36;23.00;57.40
62583;DHT22;48641;51.676;5.808;2023-06-05T15:05:01;23.00;57.40
62583;DHT22;48641;51.676;5.808;2023-06-05T15:07:38;23.00;57.40
62583;DHT22;48641;51.676;5.808;2023-06-05T15:10:05;23.00;57.30
62583;DHT22;48641;51.676;5.808;2023-06-05T15:12:31;23.00;57.50
62583;DHT22;48641;51.676;5.808;2023-06-05T15:14:57;23.00;57.40
62583;DHT22;48641;51.676;5.808;2023-06-05T15:17:22;23.00;57.50
62583;DHT22;48641;51.676;5.808;2023-06-05T15:19:48;23.00;57.40
62583;DHT22;48641;51.676;5.808;2023-06-05T15:22:13;23.00;57.50
62583;DHT22;48641;51.676;5.808;2023-06-05T15:24:39;23.00;57.50
62583;DHT22;48641;51.676;5.808;2023-06-05T15:27:05;23.00;57.40
62583;DHT22;48641;51.676;5.808;2023-06-05T15:29:30;23.00;57.40
62583;DHT22;48641;51.676;5.808;2023-06-05T15:31:56;23.10;57.40
62583;DHT22;48641;51.676;5.808;2023-06-05T15:34:21;23.10;57.40
62583;DHT22;48641;51.676;5.808;2023-06-05T15:36:47;23.10;57.40
62583;DHT22;48641;51.676;5.808;2023-06-05T15:39:13;23.10;58.30
62583;DHT22;48641;51.676;5.808;2023-06-05T15:41:39;23.10;57.40
62583;DHT22;48641;51.676;5.808;2023-06-05T15:44:05;23.10;57.40
62583;DHT22;48641;51.676;5.808;2023-06-05T15:46:33;23.10;57.40
62583;DHT22;48641;51.676;5.808;2023-06-05T15:48:58;23.10;57.40
62583;DHT22;48641;51.676;5.808;2023-06-05T15:51:24;23.10;57.60
62583;DHT22;48641;51.676;5.808;2023-06-05T15:53:52;23.10;57.60
62583;DHT22;48641;51.676;5.808;2023-06-05T15:56:18;23.10;57.60